createdAt,value
2022-10-28T00:01:47.688Z,3.60
2022-10-28T00:04:50.625Z,3.95
2022-10-28T00:07:53.512Z,4.28
2022-10-28T00:11:03.456Z,4.10
2022-10-28T00:14:07.959Z,4.13
2022-10-28T00:17:12.216Z,3.60
2022-10-28T00:20:15.915Z,3.50
2022-10-28T00:23:18.520Z,3.75
2022-10-28T00:26:24.511Z,4.60
2022-10-28T00:29:27.288Z,4.13
2022-10-28T00:32:32.466Z,3.83
2022-10-28T00:35:35.287Z,3.33
2022-10-28T00:38:38.023Z,3.78
2022-10-28T00:41:43.080Z,3.58
2022-10-28T00:44:58.018Z,3.78
2022-10-28T00:48:03.892Z,3.47
2022-10-28T00:51:06.810Z,3.42
2022-10-28T00:54:09.902Z,3.92
2022-10-28T00:57:15.939Z,3.83
2022-10-28T01:00:18.956Z,3.70
2022-10-28T01:03:23.035Z,3.60
2022-10-28T01:06:27.887Z,3.55
2022-10-28T01:09:30.482Z,3.95
2022-10-28T01:12:41.174Z,3.60
2022-10-28T01:15:50.694Z,3.58
2022-10-28T01:19:07.603Z,3.43
2022-10-28T01:22:21.389Z,3.70
2022-10-28T01:25:42.839Z,4.18
2022-10-28T01:29:04.201Z,3.70
2022-10-28T01:32:13.064Z,3.80
2022-10-28T01:35:23.266Z,3.37
2022-10-28T01:38:34.029Z,3.47
2022-10-28T01:41:44.250Z,3.50
2022-10-28T01:44:53.260Z,3.45
2022-10-28T01:48:01.515Z,3.65
2022-10-28T01:51:09.761Z,3.60
2022-10-28T01:54:16.024Z,3.75
2022-10-28T01:57:19.762Z,3.70
2022-10-28T02:00:22.568Z,4.00
2022-10-28T02:03:27.280Z,3.70
2022-10-28T02:06:33.252Z,3.90
2022-10-28T02:09:52.124Z,3.67
2022-10-28T02:12:57.445Z,3.90
2022-10-28T02:16:07.582Z,3.90
2022-10-28T02:19:20.108Z,3.65
2022-10-28T02:22:27.700Z,3.60
2022-10-28T02:25:34.899Z,3.92
2022-10-28T02:28:43.016Z,3.78
2022-10-28T02:31:50.343Z,3.28
2022-10-28T02:34:57.784Z,4.03
2022-10-28T02:38:03.937Z,4.00
2022-10-28T02:41:14.214Z,3.50
2022-10-28T02:44:21.336Z,3.85
2022-10-28T02:47:29.897Z,3.85
2022-10-28T02:50:37.882Z,3.95
2022-10-28T02:53:51.550Z,3.77
2022-10-28T02:57:00.566Z,3.72
2022-10-28T03:00:08.446Z,4.50
2022-10-28T03:03:11.112Z,3.80
2022-10-28T03:06:15.477Z,3.80
2022-10-28T03:09:18.390Z,3.90
2022-10-28T03:12:21.063Z,3.80
2022-10-28T03:15:23.964Z,4.50
2022-10-28T03:18:26.535Z,3.47
2022-10-28T03:21:30.639Z,3.55
2022-10-28T03:24:33.530Z,3.97
2022-10-28T03:27:36.134Z,3.40
2022-10-28T03:30:38.909Z,3.75
2022-10-28T03:33:41.533Z,4.05
2022-10-28T03:36:45.938Z,3.85
2022-10-28T03:39:48.703Z,3.70
2022-10-28T03:42:51.655Z,4.25
2022-10-28T03:45:54.742Z,3.70
2022-10-28T03:48:57.417Z,3.90
2022-10-28T03:52:01.596Z,3.67
2022-10-28T03:55:04.966Z,3.90
2022-10-28T03:58:07.537Z,4.28
2022-10-28T04:01:10.465Z,4.03
2022-10-28T04:04:13.258Z,4.40
2022-10-28T04:07:17.332Z,4.10
2022-10-28T04:10:20.017Z,4.13
2022-10-28T04:13:22.599Z,3.80
2022-10-28T04:16:25.376Z,4.30
2022-10-28T04:19:28.015Z,3.85
2022-10-28T04:22:32.073Z,4.27
2022-10-28T04:25:34.767Z,4.00
2022-10-28T04:28:37.359Z,3.90
2022-10-28T04:31:40.103Z,4.00
2022-10-28T04:34:42.708Z,3.90
2022-10-28T04:37:46.864Z,3.87
2022-10-28T04:40:49.936Z,3.53
2022-10-28T04:43:52.527Z,3.83
2022-10-28T04:46:56.837Z,4.50
2022-10-28T04:49:59.409Z,3.60
2022-10-28T04:53:03.501Z,3.80
2022-10-28T04:56:06.863Z,4.60
2022-10-28T04:59:09.430Z,4.50
2022-10-28T05:02:12.303Z,5.17
2022-10-28T05:08:24.266Z,4.63
2022-10-28T05:11:27.032Z,4.70
2022-10-28T05:14:29.664Z,4.23
2022-10-28T05:17:32.394Z,4.53
2022-10-28T05:20:35.140Z,4.75
2022-10-28T05:23:39.162Z,4.57
2022-10-28T05:26:41.973Z,4.80
2022-10-28T05:29:44.646Z,4.83
2022-10-28T05:32:49.280Z,4.65
2022-10-28T05:35:54.294Z,5.07
2022-10-28T05:38:58.511Z,4.93
2022-10-28T05:42:01.235Z,5.28
2022-10-28T05:45:03.903Z,4.60
2022-10-28T05:48:07.836Z,5.07
2022-10-28T05:51:10.404Z,5.18
2022-10-28T05:54:14.565Z,5.03
2022-10-28T05:57:17.368Z,5.00
2022-10-28T06:00:21.658Z,5.03
2022-10-28T06:03:28.603Z,4.75
2022-10-28T06:06:33.809Z,5.20
2022-10-28T06:09:38.040Z,4.68
2022-10-28T06:12:39.387Z,4.90
2022-10-28T06:15:42.024Z,4.97
2022-10-28T06:18:44.903Z,5.40
2022-10-28T06:21:47.618Z,5.10
2022-10-28T06:24:51.619Z,5.47
2022-10-28T06:27:55.676Z,5.80
2022-10-28T06:31:01.581Z,5.40
2022-10-28T06:34:04.441Z,5.70
2022-10-28T06:37:08.910Z,5.65
2022-10-28T06:40:13.575Z,5.07
2022-10-28T06:43:16.339Z,5.05
2022-10-28T06:46:18.936Z,5.13
2022-10-28T06:49:23.369Z,4.35
2022-10-28T06:52:25.969Z,5.28
2022-10-28T06:55:31.094Z,5.32
2022-10-28T06:58:33.869Z,5.00
2022-10-28T07:01:36.591Z,4.83
2022-10-28T07:04:39.906Z,4.90
2022-10-28T07:07:42.527Z,4.95
2022-10-28T07:10:54.711Z,4.40
2022-10-28T07:13:57.476Z,4.45
2022-10-28T07:17:00.218Z,4.80
2022-10-28T07:20:03.097Z,4.72
2022-10-28T07:23:05.760Z,4.65
2022-10-28T07:26:09.924Z,4.38
2022-10-28T07:29:12.796Z,5.20
2022-10-28T07:32:16.139Z,4.67
2022-10-28T07:35:19.176Z,4.78
2022-10-28T07:38:22.531Z,4.40
2022-10-28T07:41:27.095Z,4.38
2022-10-28T07:44:29.824Z,4.72
2022-10-28T07:47:32.418Z,4.30
2022-10-28T07:50:35.377Z,4.60
2022-10-28T07:53:38.000Z,4.50
2022-10-28T07:56:42.150Z,4.32
2022-10-28T07:59:45.104Z,4.40
2022-10-28T08:02:47.924Z,4.27
2022-10-28T08:05:50.736Z,4.35
2022-10-28T08:08:56.544Z,5.07
2022-10-28T08:12:00.946Z,4.30
2022-10-28T08:15:03.875Z,4.28
2022-10-28T08:18:06.689Z,4.20
2022-10-28T08:21:11.358Z,3.90
2022-10-28T08:24:14.058Z,4.20
2022-10-28T08:27:18.149Z,4.60
2022-10-28T08:30:20.931Z,3.88
2022-10-28T08:33:23.637Z,3.83
2022-10-28T08:36:26.511Z,3.78
2022-10-28T08:39:29.186Z,3.75
2022-10-28T08:42:41.500Z,3.90
2022-10-28T08:45:51.641Z,4.68
2022-10-28T08:48:57.673Z,3.73
2022-10-28T08:52:05.078Z,3.50
2022-10-28T08:55:13.374Z,3.80
2022-10-28T08:58:21.888Z,4.10
2022-10-28T09:01:36.550Z,4.07
2022-10-28T09:04:41.425Z,4.00
2022-10-28T09:07:44.317Z,3.90
2022-10-28T09:10:59.908Z,3.88
2022-10-28T09:14:16.714Z,3.42
2022-10-28T09:17:21.556Z,4.25
2022-10-28T09:20:35.112Z,3.30
2022-10-28T09:23:49.654Z,3.97
2022-10-28T09:27:00.025Z,3.55
2022-10-28T09:30:19.604Z,3.80
2022-10-28T09:33:47.154Z,3.58
2022-10-28T09:36:55.323Z,3.43
2022-10-28T09:40:03.240Z,3.72
2022-10-28T09:43:12.732Z,4.10
2022-10-28T09:46:18.936Z,3.60
2022-10-28T09:49:26.102Z,3.38
2022-10-28T09:52:35.731Z,3.17
2022-10-28T09:55:38.435Z,4.05
2022-10-28T09:58:47.192Z,3.25
2022-10-28T10:01:51.385Z,3.33
2022-10-28T10:04:54.466Z,3.25
2022-10-28T10:08:00.450Z,3.40
2022-10-28T10:11:06.952Z,3.15
2022-10-28T10:14:13.850Z,3.40
2022-10-28T10:17:21.290Z,3.22
2022-10-28T10:20:23.900Z,3.50
2022-10-28T10:23:32.078Z,2.90
2022-10-28T10:26:35.664Z,3.25
2022-10-28T10:29:45.073Z,3.03
2022-10-28T10:32:50.014Z,2.92
2022-10-28T10:36:00.256Z,3.50
2022-10-28T10:39:04.214Z,3.27
2022-10-28T10:42:17.446Z,2.70
2022-10-28T10:45:23.787Z,2.83
2022-10-28T10:48:28.176Z,2.85
2022-10-28T10:51:31.052Z,2.88
2022-10-28T10:54:35.221Z,2.70
2022-10-28T10:57:38.177Z,2.80
2022-10-28T11:00:47.009Z,2.75
2022-10-28T11:03:55.187Z,2.88
2022-10-28T11:06:58.839Z,2.87
2022-10-28T11:10:02.839Z,2.85
2022-10-28T11:13:26.499Z,3.23
2022-10-28T11:16:29.046Z,3.27
2022-10-28T11:19:34.665Z,2.75
2022-10-28T11:22:46.739Z,2.65
2022-10-28T11:25:52.705Z,2.78
2022-10-28T11:29:10.054Z,2.80
2022-10-28T11:32:34.004Z,2.80
2022-10-28T11:35:54.679Z,2.63
2022-10-28T11:39:13.685Z,2.75
2022-10-28T11:42:25.609Z,2.60
2022-10-28T11:45:33.810Z,3.00
2022-10-28T11:48:59.195Z,2.60
2022-10-28T11:52:13.882Z,3.10
2022-10-28T11:55:27.236Z,2.78
2022-10-28T11:58:40.303Z,2.70
2022-10-28T12:01:55.234Z,3.00
2022-10-28T12:05:05.580Z,2.80
2022-10-28T12:08:26.418Z,2.60
2022-10-28T12:11:40.141Z,2.80
2022-10-28T12:14:52.253Z,2.60
2022-10-28T12:18:02.022Z,2.13
2022-10-28T12:21:16.360Z,3.00
2022-10-28T12:24:23.685Z,3.03
2022-10-28T12:27:31.536Z,2.80
2022-10-28T12:30:38.691Z,2.70
2022-10-28T12:33:45.887Z,2.67
2022-10-28T12:36:53.299Z,2.50
2022-10-28T12:40:03.296Z,2.42
2022-10-28T12:43:11.965Z,2.67
2022-10-28T12:46:23.726Z,2.67
2022-10-28T12:49:37.978Z,2.60
2022-10-28T12:52:48.486Z,2.80
2022-10-28T12:55:58.098Z,2.63
2022-10-28T12:59:07.660Z,2.80
2022-10-28T13:02:17.936Z,2.90
2022-10-28T13:05:24.996Z,2.53
2022-10-28T13:08:45.518Z,2.50
2022-10-28T13:12:16.964Z,2.80
2022-10-28T13:15:44.274Z,2.65
2022-10-28T13:18:59.539Z,2.60
2022-10-28T13:22:20.464Z,2.57
2022-10-28T13:25:35.177Z,2.90
2022-10-28T13:28:47.157Z,3.15
2022-10-28T13:31:50.213Z,2.55
2022-10-28T13:34:52.784Z,2.75
2022-10-28T13:37:57.340Z,2.97
2022-10-28T13:41:28.618Z,2.77
2022-10-28T13:44:48.568Z,2.60
2022-10-28T13:47:51.309Z,2.33
2022-10-28T13:51:42.700Z,2.55
2022-10-28T13:54:56.102Z,2.57
2022-10-28T13:58:01.959Z,2.80
2022-10-28T14:02:01.570Z,2.85
2022-10-28T14:05:14.891Z,3.05
2022-10-28T14:08:22.366Z,2.70
2022-10-28T14:11:28.614Z,2.70
2022-10-28T14:14:31.781Z,3.00
2022-10-28T14:17:42.629Z,3.10
2022-10-28T14:20:58.871Z,2.95
2022-10-28T14:24:13.298Z,2.45
2022-10-28T14:27:28.824Z,2.67
2022-10-28T14:30:31.407Z,2.40
2022-10-28T14:33:34.786Z,3.00
2022-10-28T14:36:48.935Z,2.67
2022-10-28T14:40:07.097Z,2.50
2022-10-28T14:43:44.451Z,2.50
2022-10-28T14:47:00.877Z,2.90
2022-10-28T14:50:08.231Z,2.83
2022-10-28T14:53:18.440Z,2.60
2022-10-28T14:56:25.557Z,2.70
2022-10-28T14:59:34.331Z,2.30
2022-10-28T15:02:39.125Z,4.40
2022-10-28T15:05:41.942Z,3.00
2022-10-28T15:08:45.923Z,2.60
2022-10-28T15:11:51.764Z,2.38
2022-10-28T15:14:56.067Z,3.10
2022-10-28T15:17:59.804Z,2.87
2022-10-28T15:21:10.059Z,3.10
2022-10-28T15:24:17.590Z,2.88
2022-10-28T15:27:21.208Z,2.70
2022-10-28T15:30:25.994Z,3.30
2022-10-28T15:33:31.623Z,3.23
2022-10-28T15:36:34.325Z,2.72
2022-10-28T15:39:40.072Z,2.67
2022-10-28T15:42:50.807Z,3.58
2022-10-28T15:45:54.406Z,2.80
2022-10-28T15:48:59.548Z,2.50
2022-10-28T15:52:22.048Z,3.10
2022-10-28T15:55:47.880Z,3.05
2022-10-28T15:59:14.848Z,2.80
2022-10-28T16:02:40.810Z,3.03
2022-10-28T16:05:47.762Z,3.00
2022-10-28T16:09:02.006Z,2.72
2022-10-28T16:12:16.026Z,3.08
2022-10-28T16:15:19.270Z,3.10
2022-10-28T16:18:25.378Z,3.43
2022-10-28T16:21:28.622Z,3.00
2022-10-28T16:24:31.214Z,3.00
2022-10-28T16:27:35.633Z,3.50
2022-10-28T16:30:38.667Z,7.95
2022-10-28T16:33:41.356Z,8.47
2022-10-28T16:36:44.298Z,7.70
2022-10-28T16:39:47.128Z,11.45
2022-10-28T16:42:51.669Z,10.20
2022-10-28T16:45:57.095Z,10.25
2022-10-28T16:49:01.214Z,9.63
2022-10-28T16:52:05.685Z,8.13
2022-10-28T16:55:16.292Z,7.13
2022-10-28T16:58:23.172Z,6.72
2022-10-28T17:01:29.162Z,5.40
2022-10-28T17:04:32.132Z,5.07
2022-10-28T17:07:35.125Z,5.13
2022-10-28T17:10:39.867Z,4.43
2022-10-28T17:13:44.108Z,4.60
2022-10-28T17:16:46.950Z,4.20
2022-10-28T17:19:49.724Z,4.30
2022-10-28T17:22:52.982Z,4.10
2022-10-28T17:25:59.249Z,4.60
2022-10-28T17:29:03.302Z,4.03
2022-10-28T17:32:08.743Z,3.63
2022-10-28T17:35:13.897Z,3.80
2022-10-28T17:38:16.515Z,3.50
2022-10-28T17:41:19.400Z,4.22
2022-10-28T17:44:24.379Z,3.88
2022-10-28T17:47:27.189Z,3.65
2022-10-28T17:50:29.735Z,3.60
2022-10-28T17:53:32.926Z,3.33
2022-10-28T17:56:35.876Z,4.20
2022-10-28T17:59:40.107Z,6.95
2022-10-28T18:02:43.299Z,5.00
2022-10-28T18:05:46.044Z,4.60
2022-10-28T18:11:53.431Z,5.88
2022-10-28T18:14:58.024Z,5.75
2022-10-28T18:18:01.598Z,4.88
2022-10-28T18:21:04.869Z,4.60
2022-10-28T18:24:08.698Z,3.87
2022-10-28T18:27:11.671Z,4.10
2022-10-28T18:30:16.143Z,3.83
2022-10-28T18:33:19.062Z,3.85
2022-10-28T18:36:23.059Z,4.20
2022-10-28T18:39:27.004Z,4.20
2022-10-28T18:42:30.553Z,3.92
2022-10-28T18:45:35.425Z,3.75
2022-10-28T18:48:38.875Z,4.82
2022-10-28T18:51:41.840Z,5.50
2022-10-28T18:54:44.497Z,3.87
2022-10-28T18:57:50.939Z,4.22
2022-10-28T19:00:55.458Z,4.95
2022-10-28T19:03:59.973Z,3.95
2022-10-28T19:07:02.746Z,3.93
2022-10-28T19:10:07.560Z,4.20
2022-10-28T19:13:10.357Z,4.28
2022-10-28T19:16:15.776Z,4.63
2022-10-28T19:19:18.803Z,3.55
2022-10-28T19:22:22.085Z,4.87
2022-10-28T19:25:24.933Z,4.77
2022-10-28T19:28:28.231Z,4.53
2022-10-28T19:31:36.382Z,6.75
2022-10-28T19:34:39.338Z,5.60
2022-10-28T19:37:42.134Z,5.60
2022-10-28T19:40:44.703Z,6.67
2022-10-28T19:43:47.911Z,6.45
2022-10-28T19:46:51.878Z,7.03
2022-10-28T19:49:54.850Z,8.10
2022-10-28T19:52:57.962Z,8.30
2022-10-28T19:56:02.446Z,7.83
2022-10-28T19:59:08.391Z,6.32
2022-10-28T20:02:13.035Z,6.95
2022-10-28T20:05:16.263Z,6.72
2022-10-28T20:08:19.044Z,5.70
2022-10-28T20:11:26.155Z,5.70
2022-10-28T20:14:29.811Z,5.00
2022-10-28T20:17:34.222Z,5.82
2022-10-28T20:20:37.217Z,5.50
2022-10-28T20:23:40.525Z,5.60
2022-10-28T20:26:43.559Z,5.37
2022-10-28T20:29:46.478Z,4.75
2022-10-28T20:32:54.794Z,4.82
2022-10-28T20:35:59.252Z,4.88
2022-10-28T20:39:03.811Z,5.57
2022-10-28T20:42:06.596Z,5.60
2022-10-28T20:45:10.544Z,4.95
2022-10-28T20:48:14.725Z,4.80
2022-10-28T20:51:18.028Z,5.03
2022-10-28T20:54:20.722Z,4.67
2022-10-28T20:57:23.525Z,4.93
2022-10-28T21:00:26.258Z,5.00
2022-10-28T21:03:30.188Z,4.63
2022-10-28T21:06:33.931Z,5.45
2022-10-28T21:09:36.765Z,5.70
2022-10-28T21:12:39.362Z,6.17
2022-10-28T21:15:45.563Z,6.10
2022-10-28T21:18:50.126Z,6.25
2022-10-28T21:21:53.258Z,6.00
2022-10-28T21:24:56.258Z,6.20
2022-10-28T21:27:59.736Z,6.70
2022-10-28T21:31:05.761Z,6.20
2022-10-28T21:34:10.001Z,5.97
2022-10-28T21:37:12.950Z,5.82
2022-10-28T21:40:15.916Z,5.93
2022-10-28T21:43:18.452Z,6.50
2022-10-28T21:46:22.797Z,5.57
2022-10-28T21:49:26.858Z,5.90
2022-10-28T21:52:29.748Z,6.28
2022-10-28T21:55:46.003Z,6.00
2022-10-28T21:58:51.759Z,6.40
2022-10-28T22:01:55.521Z,6.30
2022-10-28T22:05:00.245Z,6.45
2022-10-28T22:08:04.861Z,5.47
2022-10-28T22:11:09.620Z,5.57
2022-10-28T22:14:12.220Z,5.63
2022-10-28T22:17:15.209Z,5.20
2022-10-28T22:20:19.534Z,4.85
2022-10-28T22:23:22.128Z,4.75
2022-10-28T22:26:26.851Z,5.13
2022-10-28T22:29:29.407Z,4.90
2022-10-28T22:32:32.135Z,4.60
2022-10-28T22:35:36.161Z,4.43
2022-10-28T22:38:38.945Z,4.38
2022-10-28T22:41:41.618Z,4.20
2022-10-28T22:44:44.241Z,4.10
2022-10-28T22:47:47.037Z,4.18
2022-10-28T22:50:51.124Z,3.75
2022-10-28T22:53:53.704Z,4.80
2022-10-28T22:56:56.370Z,4.40
2022-10-28T22:59:58.934Z,4.43
2022-10-28T23:03:01.741Z,4.20
2022-10-28T23:06:07.156Z,4.07
2022-10-28T23:09:10.328Z,4.80
2022-10-28T23:12:13.789Z,3.87
2022-10-28T23:15:16.523Z,3.70
2022-10-28T23:18:19.183Z,3.67
2022-10-28T23:21:24.747Z,3.80
2022-10-28T23:24:27.319Z,4.05
2022-10-28T23:27:30.159Z,3.70
2022-10-28T23:30:32.965Z,3.50
2022-10-28T23:33:36.045Z,3.30
2022-10-28T23:36:40.230Z,3.53
2022-10-28T23:39:42.771Z,3.55
2022-10-28T23:42:45.425Z,3.73
2022-10-28T23:45:48.037Z,3.70
2022-10-28T23:48:50.726Z,3.65
2022-10-28T23:51:54.767Z,3.80
2022-10-28T23:54:57.302Z,3.50
2022-10-28T23:58:00.300Z,3.90
